Kezdőlap
METAR-TAF:

METAR-TAF

Repülőterek :

Akulivik, Québec, Kanada

földrajzi szélesség: 60-49N, földrajzi hosszúság: 078-09W, magasság: 20 m

Jelenlegi meteorológiai megfigyelések

A jelentés 1 órával és 1 perccel ezelõtt készült, 17:00 UTC
Délkeleti szél 19 kt
Hőmérséklet -23°C
Páratartalom 76%
Légköri nyomás 1025 hPa
Látótávolság: 12.9 km
Kevés felhő 2500 lábon
alacsony hófúvás

METAR: CYKO 101700Z 13019KT 8SM DRSN FEW025 M23/M26 A3028 RMK SC1 SLP258

Idő: 13:01 (18:01 UTC)


TAF: hiányzik

Meteorológiai megfigyelések és előrejelzések több, mint 4000 repülőtéren (METAR és TAF jelentéseket).

A térképen piros és sárga pontok jelzik az elérhető meteorológiai állomásokat.

Mozgassa az egeret a pont fölött, hogy megjelenjen az állomás neve.

Azután kattintson az időjárási megfigyelések és előrejelzések megtekintéséhez.

A térkép megváltoztatása: kattintson a fekete keresztel jelölt zöld gombra ráközelítéshez, a vonallal jelölt zöld gombra távolításhoz, vagy a zöld nyilakra a szomszédos térképek eléréséhez.


METAR-TAF: